Saltar para o conteúdo principal

Mértola, Vale Formoso

ID 1210863 · 37.7500, -7.5500 mapa

Última leitura · 2026-05-09 19:00 (Europe/Lisbon)

Temperatura
18.5 °C
Humidade
54 %
Pressão
Precipitação
0.0 mm
Radiação
464 W/m²
Velocidade do vento
18.0 km/h
Direcção do vento
SW · Sudoeste

Histórico de 24 horas

Hora (Europe/Lisbon) Temperatura Humidade Pressão Chuva Vento Direcção
2026-05-09 19:00 18.5 °C 54 % 0.0 mm 18.0 km/h SW
2026-05-09 18:00 19.7 °C 48 % 0.0 mm 23.0 km/h SW
2026-05-09 17:00 19.7 °C 58 % 0.0 mm 29.2 km/h SW
2026-05-09 16:00 18.2 °C 65 % 0.8 mm 14.4 km/h SW
2026-05-09 15:00 19.2 °C 57 % 0.2 mm 20.9 km/h SW
2026-05-09 14:00 19.7 °C 48 % 0.0 mm 24.1 km/h SW
2026-05-09 13:00 19.5 °C 48 % 0.0 mm 22.0 km/h SW
2026-05-09 12:00 18.5 °C 59 % 0.0 mm 20.2 km/h SW
2026-05-09 11:00 17.5 °C 73 % 0.0 mm 22.7 km/h SW
2026-05-09 10:00 16.3 °C 86 % 0.0 mm 19.1 km/h S
2026-05-09 09:00 14.7 °C 92 % 0.1 mm 18.4 km/h SE
2026-05-09 08:00 14.1 °C 93 % 1.2 mm 13.7 km/h SE
2026-05-09 07:00 14.9 °C 94 % 0.2 mm 12.6 km/h SE
2026-05-09 06:00 14.2 °C 97 % 0.0 mm 16.9 km/h S
2026-05-09 05:00 13.3 °C 98 % 2.6 mm 9.0 km/h S
2026-05-09 04:00 13.3 °C 98 % 15.0 mm 4.3 km/h N
2026-05-09 03:00 13.9 °C 96 % 2.2 mm 2.5 km/h NE
2026-05-09 02:00 14.0 °C 91 % 0.0 mm 7.6 km/h E
2026-05-09 01:00 13.3 °C 91 % 0.0 mm 11.5 km/h SE
2026-05-09 00:00 14.3 °C 90 % 2.2 mm 8.6 km/h SE
2026-05-08 23:00 15.4 °C 78 % 0.7 mm 6.8 km/h S
2026-05-08 22:00 16.0 °C 68 % 0.0 mm 13.7 km/h S
2026-05-08 21:00 16.9 °C 61 % 0.0 mm 14.0 km/h S
2026-05-08 20:00 18.6 °C 50 % 0.0 mm 12.6 km/h S